메인 페이지
METAR-TAF:

METAR-TAF

공항 :

우수아이아, 아르헨티나

위도: 54-48S, 경도: 068-19W, 고도: 16m

현재 날씨관측

예보는 1 시간 7분 전, 07:00시(UTC)에 발표되었습니다.
북서12kt
온도 9°C
습도 76%
기압 982 hPa
시정 10km 이상
고도 4000ft 상공 구름 많음
고도 6500ft 상공 구름 많음

METAR: SAWH 150700Z 32012KT 9999 BKN040 BKN065 09/05 Q0982

시각: 05:07 (08:07 UTC)

예보

예보는 3 시간 7분 전, 05:00시(UTC)에 발표되었습니다.
예보 대상 시간: 15일 06시부터 16일 06시까지 (UTC)
서북서15kt
시정 10km 이상
고도 4000ft 상공 구름 많음
고도 8000ft 상공 구름 많음
일시적
15일 13시부터 15일 16시까지 (UTC)
서북서20kt, 순간 최대 풍속 35kt
전환 중
15일 20시부터 15일 22시까지 (UTC)
남서20kt, 순간 최대 풍속 30kt
고도 1500ft 상공 구름 많음
고도 3000ft 상공 구름 많음
일시적
15일 22시부터 16일 04시까지 (UTC)
시정: 5000m
고도 1200ft 상공 흐림
소나기

TAF: SAWH 150500Z 1506/1606 29015KT 9999 BKN040 BKN080 TX18/1520Z TN07/1510Z TEMPO 1513/1516 29020G35KT BECMG 1520/1522 23020G30KT BKN015 BKN030 TEMPO 1522/1604 5000 SHRA OVC012

4,000개 이상의 공항 관측 자료 및 예보 (METAR 및 TAF 보고).

지도상에서 검색 가능한 기상관측소가 노란 점과 빨간 점으로 표시되어 있습니다.

기상관측소 명을 보려면 표시 위로 마우스를 이동하세요.

날씨 관측과 예보를 보려면 클릭하세요.

지도 변경 : 확대하려면 엑스 표시가 있는 녹색 버튼, 축소하려면 빼기 표시가 있는 녹색 버튼, 다음 페이지의 지도를 보려면 녹색 화살표를 클릭하세요.


METAR-TAF: